Huvudsida
METAR-TAF:

METAR-TAF

Flygplatser :

Kashan, Iran

latitud: 33-59N, longitud: 051-27E, höjd: 982 m

Aktuellt väderrapport

Denna rapport gjordes för 15 timmar och 1 minuter sedan, klockan 14:00 UTC
Vind 2 kt från nord/nordväst
Temperatur 8°C
Fuktighet 76%
Tryck 1019 hPa
Sikt 10 km eller mer
Spridda moln på en höjd av 3500 ft
Brutna moln på en höjd av 10000 ft

METAR: OIFK 191400Z 33002KT 9999 SCT035 BKN100 08/04 Q1018 A3009

Tid: 08:31 (05:01 UTC)


TAF: saknas

Aktuella väderrapporter och prognoser från 4000 flygplatser (METAR- och TAF-rapporter).

De tillgängliga stationerna syns som gula och röda prickar på kartan.

För musen över prickarna för att se namnen på stationerna.

Klicka sedan för att få väderrapporter och prognoser.

För att ändra kartan: Klicka på de gröna knapparna med ett svart kors på för att zooma in; den gröna knappen med ett streck på för att zooma ut; eller på de gröna pilarna för angränsande kartor.


METAR-TAF: